Time;durP1;ratioP1;P1;durP2;ratioP2;P2;SDS_P1;SDS_P2;PMS_P1;PMS_P2;Temp;Humidity;BMP_temperature;BMP_pressure;BME280_temperature;BME280_humidity;BME280_pressure;Samples;Min_cycle;Max_cycle;Signal;HPM_P1;HPM_P2
2022/06/04 00:00:36;;;;;;;12.18;5.15;;;23.30;99.90;;;;;;4955514;28;20039;-89
2022/06/04 00:03:03;;;;;;;10.75;5.70;;;23.20;99.90;;;;;;4959225;28;20404;-89
2022/06/04 00:05:32;;;;;;;13.00;5.10;;;23.00;99.90;;;;;;4942286;29;20042;-89
2022/06/04 00:07:59;;;;;;;12.90;5.43;;;23.00;99.90;;;;;;4959519;28;20027;-89
2022/06/04 00:16:04;;;;;;;10.07;5.30;;;23.10;99.90;;;;;;4957853;28;20080;-88
2022/06/04 00:18:30;;;;;;;13.88;5.35;;;23.00;99.90;;;;;;4956216;28;20031;-88
2022/06/04 00:20:56;;;;;;;12.23;5.20;;;22.80;99.90;;;;;;4942276;29;20035;-89
2022/06/04 00:23:22;;;;;;;15.63;5.15;;;22.80;99.90;;;;;;4959173;28;20134;-88
2022/06/04 00:25:51;;;;;;;17.23;5.18;;;22.80;99.90;;;;;;4941977;29;20400;-89
2022/06/04 00:28:19;;;;;;;16.60;5.22;;;22.80;99.90;;;;;;4941780;28;20030;-89
2022/06/04 00:30:45;;;;;;;14.65;4.82;;;22.70;99.90;;;;;;4955514;28;20028;-89
2022/06/04 00:33:11;;;;;;;14.65;5.35;;;22.70;99.90;;;;;;4941396;29;20031;-88
2022/06/04 00:35:38;;;;;;;11.38;4.80;;;22.70;99.90;;;;;;4958475;28;20501;-88
2022/06/04 00:38:05;;;;;;;10.38;4.97;;;22.60;99.90;;;;;;4958958;28;20122;-88
2022/06/04 00:40:42;;;;;;;10.93;5.00;;;22.50;99.90;;;;;;4958609;28;20511;-88
2022/06/04 00:43:08;;;;;;;12.38;5.32;;;22.60;99.90;;;;;;4958512;28;20050;-89
2022/06/04 00:45:37;;;;;;;10.05;5.30;;;22.70;99.90;;;;;;4954983;28;20062;-89
2022/06/04 00:48:08;;;;;;;16.50;5.75;;;22.60;99.90;;;;;;4942296;29;20039;-88
2022/06/04 00:50:38;;;;;;;12.43;5.38;;;22.60;99.90;;;;;;4958196;28;20038;-88
2022/06/04 00:53:07;;;;;;;15.07;5.25;;;22.60;99.90;;;;;;4941302;29;20062;-89
2022/06/04 00:55:47;;;;;;;15.38;5.00;;;22.50;99.90;;;;;;4941452;28;20062;-89
2022/06/04 00:58:25;;;;;;;14.43;5.05;;;22.60;99.90;;;;;;4958501;28;20027;-89
2022/06/04 01:01:00;;;;;;;14.25;5.63;;;22.30;99.90;;;;;;4938674;28;20472;-89
2022/06/04 01:03:42;;;;;;;14.38;5.55;;;22.20;99.90;;;;;;4955415;28;20485;-89
2022/06/04 01:06:36;;;;;;;14.50;5.90;;;22.10;99.90;;;;;;4966769;28;20101;-89
2022/06/04 01:09:18;;;;;;;14.52;5.50;;;22.20;99.90;;;;;;4958591;28;20290;-88
2022/06/04 01:12:11;;;;;;;15.75;5.53;;;22.20;99.90;;;;;;4958179;28;20032;-89
2022/06/04 01:14:49;;;;;;;14.82;5.88;;;22.10;99.90;;;;;;4940723;29;20051;-88
2022/06/04 01:18:01;;;;;;;9.82;4.95;;;22.10;99.90;;;;;;4941170;29;20039;-88
2022/06/04 01:20:45;;;;;;;17.70;5.45;;;22.00;99.90;;;;;;4890177;29;20132;-89
2022/06/04 01:23:49;;;;;;;11.52;5.22;;;22.10;99.90;;;;;;4890620;29;20127;-89
2022/06/04 01:26:39;;;;;;;10.23;5.38;;;22.00;99.90;;;;;;4894925;29;20119;-89
2022/06/04 01:29:16;;;;;;;14.30;5.10;;;22.10;99.90;;;;;;4888223;29;20036;-88
2022/06/04 01:31:49;;;;;;;8.98;4.22;;;22.10;99.90;;;;;;4884326;29;20128;-88
2022/06/04 01:34:21;;;;;;;11.15;4.90;;;22.20;99.90;;;;;;4868919;29;20029;-89
2022/06/04 01:37:06;;;;;;;7.88;4.03;;;22.20;99.90;;;;;;4893745;29;20119;-88
2022/06/04 01:42:23;;;;;;;9.20;3.90;;;22.20;99.90;;;;;;4893532;29;20453;-89
2022/06/04 01:44:51;;;;;;;9.95;3.65;;;22.30;99.90;;;;;;4893531;29;20076;-88
2022/06/04 01:47:18;;;;;;;9.43;3.38;;;22.20;99.90;;;;;;4875713;29;20121;-89
2022/06/04 01:49:51;;;;;;;7.03;3.38;;;22.20;99.90;;;;;;4884169;29;20041;-87
2022/06/04 01:52:34;;;;;;;6.35;3.30;;;22.20;99.90;;;;;;4894873;29;20088;-89
2022/06/04 01:55:21;;;;;;;5.43;3.05;;;22.10;99.90;;;;;;4892024;29;20498;-89
2022/06/04 01:58:01;;;;;;;9.15;3.10;;;22.10;99.90;;;;;;4918214;28;20039;-88
2022/06/04 02:00:32;;;;;;;8.02;3.10;;;22.00;99.90;;;;;;4937864;29;20484;-88
2022/06/04 02:03:12;;;;;;;7.47;3.08;;;22.00;99.90;;;;;;4958274;28;20027;-89
2022/06/04 02:05:44;;;;;;;7.40;3.30;;;21.90;99.90;;;;;;4966166;28;20095;-89
2022/06/04 02:08:15;;;;;;;10.52;3.30;;;21.80;99.90;;;;;;4943920;29;20035;-89
2022/06/04 02:10:48;;;;;;;8.32;3.20;;;21.80;99.90;;;;;;4957855;28;20060;-89
2022/06/04 02:13:16;;;;;;;4.15;2.60;;;21.80;99.90;;;;;;4957765;28;20583;-89
2022/06/04 02:15:51;;;;;;;6.05;2.72;;;21.80;99.90;;;;;;4953944;28;20038;-88
2022/06/04 02:18:17;;;;;;;9.35;3.28;;;21.70;99.90;;;;;;4939269;29;20027;-89
2022/06/04 02:20:43;;;;;;;6.93;2.85;;;21.70;99.90;;;;;;4958248;28;20465;-89
2022/06/04 02:23:09;;;;;;;5.53;2.90;;;21.70;99.90;;;;;;4957735;28;20047;-89
2022/06/04 02:25:35;;;;;;;9.15;3.10;;;21.80;99.90;;;;;;4957824;28;20030;-89
2022/06/04 02:28:01;;;;;;;4.68;2.65;;;21.80;99.90;;;;;;4941981;28;20031;-89
2022/06/04 02:30:51;;;;;;;6.97;2.65;;;21.70;99.90;;;;;;4940866;29;20047;-89
2022/06/04 02:33:41;;;;;;;7.50;2.85;;;21.70;99.90;;;;;;4970170;28;20110;-89
2022/06/04 02:36:12;;;;;;;7.22;2.90;;;21.60;99.90;;;;;;4968867;28;20034;-88
2022/06/04 02:38:47;;;;;;;3.95;2.50;;;21.40;99.90;;;;;;4961074;28;20054;-88
2022/06/04 02:41:30;;;;;;;3.63;2.33;;;21.30;99.90;;;;;;4943860;29;20035;-89
2022/06/04 02:44:04;;;;;;;6.50;2.60;;;21.20;99.90;;;;;;4960961;28;20563;-88
2022/06/04 02:46:56;;;;;;;5.47;2.60;;;21.20;99.90;;;;;;4943426;28;20023;-89
2022/06/04 02:49:35;;;;;;;5.47;2.47;;;21.20;99.90;;;;;;4958160;28;20031;-88
2022/06/04 02:52:03;;;;;;;4.63;2.40;;;21.10;99.90;;;;;;4954557;28;20420;-89
2022/06/04 02:54:59;;;;;;;4.20;2.53;;;21.10;99.90;;;;;;4940433;29;20114;-89
2022/06/04 02:57:28;;;;;;;8.65;2.58;;;21.00;99.90;;;;;;4953412;28;20039;-89
2022/06/04 02:59:55;;;;;;;7.72;2.67;;;21.00;99.90;;;;;;4961111;28;20081;-89
2022/06/04 03:02:21;;;;;;;4.72;2.47;;;20.90;99.90;;;;;;4960626;28;20452;-89
2022/06/04 03:04:52;;;;;;;9.15;2.85;;;20.90;99.90;;;;;;4960688;28;20030;-88
2022/06/04 03:07:20;;;;;;;7.68;2.80;;;20.90;99.90;;;;;;4943708;28;20031;-89
2022/06/04 03:09:49;;;;;;;3.97;2.50;;;20.90;99.90;;;;;;4957003;28;20023;-88
2022/06/04 03:12:15;;;;;;;5.07;2.75;;;20.80;99.90;;;;;;4942359;29;20034;-88
2022/06/04 03:14:41;;;;;;;5.97;2.80;;;20.80;99.90;;;;;;4955042;29;20027;-88
2022/06/04 03:17:10;;;;;;;6.28;2.58;;;20.80;99.90;;;;;;4960383;28;20520;-89
2022/06/04 03:19:36;;;;;;;10.43;2.60;;;20.70;99.90;;;;;;4943139;28;20031;-89
2022/06/04 03:22:01;;;;;;;4.68;2.80;;;20.60;99.90;;;;;;4941155;28;20472;-88
2022/06/04 03:24:27;;;;;;;5.82;2.50;;;20.60;99.90;;;;;;4940591;28;20027;-88
2022/06/04 03:26:53;;;;;;;7.05;3.00;;;20.50;99.90;;;;;;4960840;28;20030;-89
2022/06/04 03:29:20;;;;;;;9.77;2.85;;;20.50;99.90;;;;;;4942969;29;20086;-89
2022/06/04 03:31:45;;;;;;;4.28;2.60;;;20.50;99.90;;;;;;4959994;28;20035;-88
2022/06/04 03:34:12;;;;;;;7.50;2.65;;;20.40;99.90;;;;;;4960045;28;20029;-88
2022/06/04 03:36:38;;;;;;;6.60;2.58;;;20.30;99.90;;;;;;4940765;29;20464;-88
2022/06/04 03:39:05;;;;;;;6.55;2.60;;;20.40;99.90;;;;;;4943272;28;20042;-88
2022/06/04 03:41:31;;;;;;;5.45;2.83;;;20.30;99.90;;;;;;4959893;28;20104;-88
2022/06/04 03:43:57;;;;;;;3.83;2.47;;;20.30;99.90;;;;;;4942507;29;20110;-89
2022/06/04 03:46:25;;;;;;;3.67;2.28;;;20.20;99.90;;;;;;4959824;28;20058;-89
2022/06/04 03:48:55;;;;;;;5.70;2.63;;;20.20;99.90;;;;;;4940032;28;20551;-89
2022/06/04 03:51:21;;;;;;;4.80;2.63;;;20.20;99.90;;;;;;4958164;28;20054;-88
2022/06/04 03:53:47;;;;;;;7.45;2.90;;;20.20;99.90;;;;;;4959985;28;20077;-88
2022/06/04 03:56:13;;;;;;;4.78;2.10;;;20.20;99.90;;;;;;4942509;29;20456;-89
2022/06/04 03:58:39;;;;;;;5.80;2.47;;;20.10;99.90;;;;;;4942132;29;20037;-88
2022/06/04 04:01:26;;;;;;;4.93;2.60;;;20.20;99.90;;;;;;4941461;28;20039;-88
2022/06/04 04:03:52;;;;;;;10.80;2.80;;;20.20;99.90;;;;;;4943320;28;20027;-88
2022/06/04 04:06:25;;;;;;;5.15;2.50;;;20.10;99.90;;;;;;4940783;29;20030;-88
2022/06/04 04:08:51;;;;;;;5.32;2.30;;;20.00;99.90;;;;;;4941008;29;20027;-88
2022/06/04 04:11:21;;;;;;;6.30;2.72;;;19.90;99.90;;;;;;4959318;28;20546;-88
2022/06/04 04:13:47;;;;;;;4.50;2.45;;;19.90;99.90;;;;;;4941918;29;20030;-88
2022/06/04 04:16:15;;;;;;;4.75;2.55;;;19.90;99.90;;;;;;4953992;28;20404;-88
2022/06/04 04:18:41;;;;;;;6.82;2.67;;;19.90;99.90;;;;;;4953275;29;20525;-87
2022/06/04 04:21:11;;;;;;;4.82;2.70;;;19.80;99.90;;;;;;4959272;28;20520;-88
2022/06/04 04:23:40;;;;;;;7.70;2.95;;;19.80;99.90;;;;;;4959510;28;20094;-89
2022/06/04 04:26:07;;;;;;;4.35;2.35;;;19.90;99.90;;;;;;4942018;29;20035;-89
2022/06/04 04:28:33;;;;;;;3.38;2.30;;;19.90;99.90;;;;;;4958858;28;20046;-88
2022/06/04 04:31:00;;;;;;;3.28;2.42;;;19.80;99.90;;;;;;4957363;28;20046;-88
2022/06/04 04:33:25;;;;;;;3.95;2.75;;;19.90;99.90;;;;;;4939211;29;20472;-89
2022/06/04 04:35:51;;;;;;;7.43;2.97;;;20.00;99.90;;;;;;4959686;28;20041;-89
2022/06/04 04:38:18;;;;;;;7.28;2.78;;;19.90;99.90;;;;;;4953758;29;20038;-88
2022/06/04 04:40:45;;;;;;;4.88;2.80;;;19.90;99.90;;;;;;4953679;29;20027;-88
2022/06/04 04:43:11;;;;;;;5.05;2.92;;;20.00;99.90;;;;;;4958816;28;20023;-88
2022/06/04 04:45:37;;;;;;;4.53;2.65;;;20.00;99.90;;;;;;4954687;28;20114;-88
2022/06/04 04:48:03;;;;;;;3.78;2.25;;;20.10;99.90;;;;;;4959374;28;20543;-88
2022/06/04 04:50:46;;;;;;;4.88;2.25;;;20.00;99.90;;;;;;4951049;28;20117;-89
2022/06/04 04:53:13;;;;;;;5.35;2.00;;;20.00;99.90;;;;;;4961558;28;20035;-88
2022/06/04 04:55:39;;;;;;;5.38;2.13;;;20.10;99.90;;;;;;4941153;29;20071;-88
2022/06/04 04:58:05;;;;;;;3.05;1.88;;;20.10;99.90;;;;;;4940367;28;20030;-88
2022/06/04 05:00:32;;;;;;;5.65;2.35;;;20.10;99.90;;;;;;4938049;29;20051;-88
2022/06/04 05:02:59;;;;;;;3.25;1.92;;;20.10;99.90;;;;;;4959148;28;20011;-88
2022/06/04 05:05:25;;;;;;;4.45;1.90;;;20.10;99.90;;;;;;4958515;28;20163;-88
2022/06/04 05:07:50;;;;;;;2.47;1.80;;;20.20;99.90;;;;;;4941173;29;20086;-89
2022/06/04 05:10:17;;;;;;;4.38;2.40;;;20.30;99.90;;;;;;4953148;28;20094;-88
2022/06/04 05:12:43;;;;;;;3.20;2.20;;;20.20;99.90;;;;;;4952187;28;20023;-89
2022/06/04 05:15:10;;;;;;;4.75;2.10;;;20.10;99.90;;;;;;4958717;28;20477;-88
2022/06/04 05:17:35;;;;;;;6.18;2.20;;;20.10;99.90;;;;;;4941611;29;20035;-88
2022/06/04 05:20:01;;;;;;;3.28;2.10;;;20.00;99.90;;;;;;4958208;28;20511;-88
2022/06/04 05:22:27;;;;;;;5.03;2.20;;;20.00;99.90;;;;;;4958025;28;20495;-89
2022/06/04 05:24:53;;;;;;;4.40;2.15;;;20.00;99.90;;;;;;4955420;28;20031;-89
2022/06/04 05:27:18;;;;;;;4.28;2.20;;;20.00;99.90;;;;;;4956961;28;20031;-88
2022/06/04 05:29:44;;;;;;;4.65;2.25;;;20.00;99.90;;;;;;4958662;28;20361;-89
2022/06/04 05:32:10;;;;;;;2.80;2.20;;;19.90;99.90;;;;;;4961808;28;20023;-89
2022/06/04 05:34:36;;;;;;;3.55;2.22;;;19.90;99.90;;;;;;4948743;28;20047;-89
2022/06/04 05:37:03;;;;;;;3.78;1.75;;;20.00;99.90;;;;;;4957036;28;20046;-88
2022/06/04 05:39:32;;;;;;;2.95;2.10;;;20.10;99.90;;;;;;4937665;29;20024;-88
2022/06/04 05:41:59;;;;;;;4.13;2.15;;;20.10;99.90;;;;;;4941475;29;20396;-88
2022/06/04 05:44:26;;;;;;;4.32;1.92;;;20.20;99.90;;;;;;4967789;28;20073;-88
2022/06/04 05:46:51;;;;;;;3.95;2.17;;;20.30;99.90;;;;;;4947507;28;20174;-88
2022/06/04 05:49:19;;;;;;;2.72;2.03;;;20.30;99.90;;;;;;4968651;28;20070;-89
2022/06/04 05:51:46;;;;;;;3.25;2.40;;;20.30;99.90;;;;;;4954305;28;20031;-89
2022/06/04 05:54:13;;;;;;;4.10;2.28;;;20.30;99.90;;;;;;4957284;28;20059;-88
2022/06/04 05:56:41;;;;;;;2.60;2.05;;;20.40;99.90;;;;;;4957976;28;20067;-88
2022/06/04 05:59:10;;;;;;;4.07;1.98;;;20.50;99.90;;;;;;4957911;28;20023;-88
2022/06/04 06:01:41;;;;;;;2.83;2.10;;;20.60;99.90;;;;;;4940627;28;20031;-88
2022/06/04 06:04:08;;;;;;;4.82;2.28;;;20.80;99.90;;;;;;4972647;28;20027;-88
2022/06/04 06:06:37;;;;;;;5.05;2.47;;;20.80;99.90;;;;;;4940825;29;20045;-88
2022/06/04 06:09:05;;;;;;;4.05;2.42;;;20.80;99.90;;;;;;4962000;28;20027;-88
2022/06/04 06:11:31;;;;;;;3.88;2.20;;;20.80;99.90;;;;;;4944317;29;20035;-88
2022/06/04 06:13:57;;;;;;;3.95;2.05;;;20.90;99.90;;;;;;4963496;28;20022;-89
2022/06/04 06:16:26;;;;;;;5.10;2.03;;;20.90;99.90;;;;;;4953992;28;20041;-88
2022/06/04 06:18:52;;;;;;;4.05;1.88;;;21.10;99.90;;;;;;4958869;28;20027;-89
2022/06/04 06:21:21;;;;;;;3.53;2.13;;;21.20;99.90;;;;;;4942735;28;20138;-88
2022/06/04 06:23:48;;;;;;;3.25;2.00;;;21.20;99.90;;;;;;4961345;28;20035;-89
2022/06/04 06:26:17;;;;;;;4.25;1.90;;;21.30;99.90;;;;;;4961247;28;20046;-88
2022/06/04 06:28:43;;;;;;;2.50;1.98;;;21.30;99.90;;;;;;4944088;29;20039;-88
2022/06/04 06:31:12;;;;;;;2.63;2.25;;;21.00;99.90;;;;;;4960951;28;20027;-89
2022/06/04 06:33:38;;;;;;;4.47;2.38;;;21.10;99.90;;;;;;4924646;29;20484;-88
2022/06/04 06:36:06;;;;;;;3.47;1.83;;;21.40;99.90;;;;;;4956450;29;20042;-89
2022/06/04 06:38:33;;;;;;;3.22;1.92;;;21.40;99.90;;;;;;4960837;28;20480;-89
2022/06/04 06:40:59;;;;;;;4.35;1.90;;;21.50;99.90;;;;;;4967310;28;20038;-88
2022/06/04 06:43:39;;;;;;;3.78;2.05;;;21.60;99.90;;;;;;4970319;28;20022;-88
2022/06/04 06:46:10;;;;;;;4.00;2.13;;;21.60;99.90;;;;;;4959898;28;20701;-88
2022/06/04 06:48:38;;;;;;;3.75;2.20;;;21.50;99.90;;;;;;4957062;28;20026;-88
2022/06/04 06:51:09;;;;;;;5.43;2.28;;;21.60;99.90;;;;;;4956052;29;20078;-88
2022/06/04 06:53:35;;;;;;;3.40;2.30;;;21.80;99.90;;;;;;4954975;29;20090;-88
2022/06/04 06:56:16;;;;;;;3.05;2.10;;;21.80;99.90;;;;;;4955205;29;20031;-88
2022/06/04 06:58:42;;;;;;;4.20;2.63;;;21.80;99.90;;;;;;4955243;29;20043;-88
2022/06/04 07:01:09;;;;;;;4.10;2.08;;;22.00;99.90;;;;;;4955268;29;20027;-89
2022/06/04 07:03:36;;;;;;;3.85;1.85;;;22.10;99.90;;;;;;4972053;28;20051;-88
2022/06/04 07:06:03;;;;;;;4.28;2.03;;;22.20;99.90;;;;;;4960975;28;20031;-88
2022/06/04 07:08:29;;;;;;;2.90;1.90;;;22.10;99.90;;;;;;4960311;28;20023;-88
2022/06/04 07:10:54;;;;;;;4.68;2.10;;;22.30;99.90;;;;;;4943401;29;20397;-88
2022/06/04 07:13:20;;;;;;;5.93;2.08;;;22.40;99.90;;;;;;4955531;28;20029;-88
2022/06/04 07:15:46;;;;;;;4.32;2.15;;;22.30;99.90;;;;;;4953905;28;20127;-88
2022/06/04 07:18:13;;;;;;;3.88;2.20;;;22.40;99.90;;;;;;4942999;29;20034;-89
2022/06/04 07:20:40;;;;;;;5.38;2.40;;;22.40;99.90;;;;;;4942961;29;20074;-88
2022/06/04 07:23:07;;;;;;;6.53;1.85;;;22.60;99.90;;;;;;4960117;28;20043;-88
2022/06/04 07:25:33;;;;;;;5.05;2.30;;;22.80;99.90;;;;;;4960371;28;20030;-89
2022/06/04 07:27:59;;;;;;;5.05;2.35;;;22.90;99.90;;;;;;4958057;28;20031;-88
2022/06/04 07:30:24;;;;;;;4.55;2.42;;;22.80;99.90;;;;;;4958036;28;20024;-88
2022/06/04 07:32:51;;;;;;;4.47;2.45;;;23.10;99.90;;;;;;4959163;28;20083;-89
2022/06/04 07:35:17;;;;;;;5.00;2.80;;;23.20;99.90;;;;;;4960516;28;20110;-89
2022/06/04 07:37:43;;;;;;;5.47;3.10;;;23.30;99.90;;;;;;4960121;28;20038;-88
2022/06/04 07:40:10;;;;;;;4.90;2.85;;;23.40;99.90;;;;;;4959565;28;20018;-89
2022/06/04 07:42:35;;;;;;;6.45;2.92;;;23.50;99.90;;;;;;4939082;29;20058;-89
2022/06/04 07:45:01;;;;;;;5.03;3.13;;;23.40;99.90;;;;;;4960695;28;20417;-88
2022/06/04 07:47:27;;;;;;;4.43;2.75;;;23.50;99.90;;;;;;4942897;29;20503;-89
2022/06/04 07:49:57;;;;;;;8.18;3.60;;;23.60;99.90;;;;;;4954072;29;20027;-88
2022/06/04 07:52:24;;;;;;;5.53;3.38;;;23.60;99.90;;;;;;4942657;28;20031;-89
2022/06/04 07:54:50;;;;;;;5.40;3.47;;;23.80;99.90;;;;;;4939433;28;20477;-88
2022/06/04 07:57:16;;;;;;;10.68;3.45;;;23.80;99.90;;;;;;4941592;29;20075;-88
2022/06/04 07:59:42;;;;;;;8.70;3.50;;;23.90;99.90;;;;;;4960435;28;20099;-88
2022/06/04 08:02:11;;;;;;;8.68;3.25;;;24.00;99.90;;;;;;4959645;28;20032;-88
2022/06/04 08:04:37;;;;;;;10.32;3.55;;;24.20;99.90;;;;;;4959163;28;20023;-88
2022/06/04 08:07:04;;;;;;;7.35;3.50;;;24.20;99.90;;;;;;4940712;28;20033;-88
2022/06/04 08:09:31;;;;;;;6.90;4.07;;;24.50;99.90;;;;;;4956442;28;20086;-89
2022/06/04 08:11:57;;;;;;;9.27;3.90;;;24.60;99.90;;;;;;4960169;28;20031;-88
2022/06/04 08:14:25;;;;;;;9.18;3.80;;;24.60;99.90;;;;;;4959232;28;20026;-87
2022/06/04 08:16:57;;;;;;;10.98;4.10;;;24.60;99.90;;;;;;4959199;28;20039;-88
2022/06/04 08:19:29;;;;;;;11.25;3.88;;;24.70;99.90;;;;;;4958750;28;20062;-89
2022/06/04 08:21:55;;;;;;;9.50;3.88;;;24.80;99.90;;;;;;4957251;28;20039;-89
2022/06/04 08:24:23;;;;;;;8.75;3.78;;;24.80;99.90;;;;;;4956711;28;20027;-89
2022/06/04 08:26:58;;;;;;;12.30;3.47;;;25.00;99.90;;;;;;4972631;28;20167;-89
2022/06/04 08:29:25;;;;;;;7.57;3.67;;;25.20;99.90;;;;;;4960407;28;20173;-89
2022/06/04 08:31:51;;;;;;;10.02;3.80;;;25.40;99.90;;;;;;4959095;28;20037;-89
2022/06/04 08:34:17;;;;;;;10.40;3.88;;;25.60;99.90;;;;;;4958661;28;20027;-89
2022/06/04 08:36:43;;;;;;;9.90;3.67;;;25.50;99.90;;;;;;4954865;28;20035;-89
2022/06/04 08:39:08;;;;;;;9.45;4.22;;;25.60;99.90;;;;;;4942240;29;20082;-89
2022/06/04 08:41:52;;;;;;;12.57;3.83;;;25.70;99.90;;;;;;4953304;29;20094;-88
2022/06/04 08:44:32;;;;;;;10.20;3.88;;;26.00;99.90;;;;;;4958646;28;20023;-88
2022/06/04 08:47:15;;;;;;;8.73;3.53;;;26.00;99.90;;;;;;4958710;28;20023;-89
2022/06/04 08:50:04;;;;;;;12.18;4.03;;;26.10;99.90;;;;;;4941386;29;20020;-89
2022/06/04 08:52:39;;;;;;;9.57;3.72;;;26.30;99.90;;;;;;4958616;28;20027;-88
2022/06/04 08:58:42;;;;;;;11.52;3.85;;;26.50;99.90;;;;;;4944839;28;20046;-88
2022/06/04 09:01:29;;;;;;;12.02;4.07;;;26.70;99.90;;;;;;4946316;28;20078;-89
2022/06/04 09:04:15;;;;;;;12.50;4.00;;;26.60;99.90;;;;;;4925764;28;20035;-88
2022/06/04 09:06:58;;;;;;;8.07;3.80;;;26.70;99.90;;;;;;4857998;29;20380;-89
2022/06/04 09:09:42;;;;;;;10.10;4.05;;;27.00;99.90;;;;;;4858511;29;20077;-89
2022/06/04 09:12:36;;;;;;;14.55;4.28;;;27.10;99.90;;;;;;4854984;29;20053;-88
2022/06/04 09:15:29;;;;;;;9.60;4.10;;;27.20;99.90;;;;;;4862402;29;20153;-88
2022/06/04 09:17:57;;;;;;;9.13;4.20;;;27.10;99.90;;;;;;4862019;29;20041;-89
2022/06/04 09:20:28;;;;;;;14.40;4.80;;;27.00;99.90;;;;;;4861980;29;20074;-89
2022/06/04 09:23:02;;;;;;;11.85;4.13;;;27.20;99.90;;;;;;4861632;29;20046;-89
2022/06/04 09:25:43;;;;;;;13.10;4.70;;;27.30;99.90;;;;;;4861925;29;20033;-89
2022/06/04 09:28:26;;;;;;;11.57;4.35;;;27.40;99.90;;;;;;4846076;29;20033;-89
2022/06/04 09:31:06;;;;;;;11.82;4.47;;;27.60;99.90;;;;;;4855660;29;20070;-88
2022/06/04 09:34:00;;;;;;;11.82;4.28;;;27.70;99.90;;;;;;4840950;29;20076;-89
2022/06/04 09:36:30;;;;;;;11.52;4.25;;;28.00;99.90;;;;;;4872427;29;20044;-89
2022/06/04 09:39:06;;;;;;;14.15;4.20;;;27.90;99.90;;;;;;4871959;29;20124;-86
2022/06/04 09:41:33;;;;;;;11.10;4.35;;;27.60;99.90;;;;;;4869564;29;20073;-87
2022/06/04 09:44:08;;;;;;;15.68;4.30;;;27.70;99.90;;;;;;4917916;28;20027;-87
2022/06/04 09:46:34;;;;;;;11.05;4.05;;;27.80;99.90;;;;;;4962878;28;20030;-94
2022/06/04 09:49:07;;;;;;;13.90;5.07;;;27.90;99.90;;;;;;4964000;28;20031;-87
2022/06/04 09:51:41;;;;;;;10.25;4.22;;;27.80;99.90;;;;;;4952360;28;20016;-87
2022/06/04 09:54:21;;;;;;;14.15;4.63;;;27.70;99.90;;;;;;4965318;28;20080;-85
2022/06/04 09:56:52;;;;;;;12.30;4.68;;;27.80;99.90;;;;;;4957543;28;20039;-85
2022/06/04 09:59:24;;;;;;;13.82;4.85;;;28.20;99.90;;;;;;4956622;28;20397;-86
2022/06/04 10:02:11;;;;;;;11.50;4.22;;;28.40;99.90;;;;;;4954982;28;20494;-85
2022/06/04 10:04:47;;;;;;;8.68;3.88;;;28.20;99.90;;;;;;4963837;28;20039;-87
2022/06/04 10:07:28;;;;;;;13.13;4.72;;;28.40;99.90;;;;;;4954967;28;20058;-87
2022/06/04 10:09:55;;;;;;;12.40;4.20;;;28.50;99.90;;;;;;4952312;28;20789;-86
2022/06/04 10:15:41;;;;;;;11.07;4.50;;;28.70;99.90;;;;;;4965392;28;20090;-87
2022/06/04 10:18:30;;;;;;;12.57;4.50;;;28.70;99.90;;;;;;4950760;28;20055;-86
2022/06/04 10:21:17;;;;;;;14.38;4.80;;;28.90;99.90;;;;;;4947812;28;20036;-89
2022/06/04 10:23:49;;;;;;;14.38;4.10;;;29.00;99.90;;;;;;4930577;28;20045;-89
2022/06/04 10:26:39;;;;;;;13.13;3.80;;;29.10;99.90;;;;;;4929297;29;20091;-89
2022/06/04 10:29:34;;;;;;;14.93;4.15;;;29.20;99.90;;;;;;4947415;29;20027;-89
2022/06/04 10:32:00;;;;;;;11.15;4.20;;;29.20;99.90;;;;;;4952192;28;20028;-89
2022/06/04 10:35:08;;;;;;;17.30;4.47;;;29.60;99.90;;;;;;4947631;28;20028;-89
2022/06/04 10:37:42;;;;;;;12.32;3.92;;;29.50;99.90;;;;;;4962717;28;20043;-89
2022/06/04 10:40:24;;;;;;;16.35;4.10;;;29.40;99.90;;;;;;4951922;28;20039;-89
2022/06/04 10:43:02;;;;;;;13.27;4.00;;;29.60;99.90;;;;;;4939418;28;20115;-89
2022/06/04 10:45:37;;;;;;;15.55;4.38;;;29.60;99.90;;;;;;4952920;28;20090;-90
2022/06/04 10:48:30;;;;;;;15.55;5.38;;;29.80;99.90;;;;;;4964432;28;20472;-89
2022/06/04 10:51:34;;;;;;;14.77;4.68;;;29.90;99.90;;;;;;4960289;28;20399;-89
2022/06/04 10:54:28;;;;;;;14.95;4.65;;;30.00;99.90;;;;;;4960963;28;20396;-89
2022/06/04 10:57:14;;;;;;;16.83;4.90;;;30.00;99.90;;;;;;4958479;28;20504;-89
2022/06/04 11:00:01;;;;;;;13.02;4.00;;;30.10;99.90;;;;;;4878627;29;20041;-89
2022/06/04 11:02:47;;;;;;;13.00;4.90;;;30.40;99.90;;;;;;4856796;29;20042;-90
2022/06/04 11:05:19;;;;;;;10.05;3.67;;;30.50;99.90;;;;;;4876071;29;20131;-89
2022/06/04 11:07:57;;;;;;;19.15;4.50;;;30.60;99.90;;;;;;4863318;29;20033;-89
2022/06/04 11:10:29;;;;;;;12.77;4.60;;;30.40;99.90;;;;;;4878414;29;20055;-89
2022/06/04 11:13:16;;;;;;;9.30;3.97;;;30.40;99.90;;;;;;4878462;29;20029;-88
2022/06/04 11:16:04;;;;;;;13.52;4.40;;;30.50;99.90;;;;;;4875898;29;20072;-88
2022/06/04 11:18:44;;;;;;;17.00;4.68;;;30.80;99.90;;;;;;4878240;29;20076;-88
2022/06/04 11:21:20;;;;;;;15.35;4.57;;;30.80;99.90;;;;;;4875010;29;20029;-88
2022/06/04 11:24:02;;;;;;;15.60;4.35;;;30.60;99.90;;;;;;4877487;29;20144;-89
2022/06/04 11:27:09;;;;;;;13.10;3.97;;;31.10;99.90;;;;;;4878040;29;20112;-88
2022/06/04 11:29:36;;;;;;;16.88;4.45;;;31.30;99.90;;;;;;4867240;29;20041;-90
2022/06/04 11:32:14;;;;;;;15.18;4.65;;;31.60;99.90;;;;;;4860800;29;20517;-90
2022/06/04 11:34:50;;;;;;;17.23;4.97;;;31.60;99.90;;;;;;4878106;29;20056;-90
2022/06/04 11:37:34;;;;;;;11.68;3.83;;;31.70;99.90;;;;;;4930372;28;20206;-90
2022/06/04 11:40:05;;;;;;;17.33;4.30;;;31.60;99.90;;;;;;4957760;28;20488;-87
2022/06/04 11:43:07;;;;;;;10.93;4.05;;;31.60;99.90;;;;;;4937934;29;20035;-91
2022/06/04 11:45:50;;;;;;;14.02;4.05;;;31.70;99.90;;;;;;4969630;28;20049;-87
2022/06/04 11:49:03;;;;;;;18.20;4.00;;;32.00;99.90;;;;;;4960285;28;20027;-90
2022/06/04 11:51:54;;;;;;;13.57;4.05;;;33.30;99.90;;;;;;4968617;28;20117;-88
2022/06/04 11:54:56;;;;;;;14.57;3.60;;;34.60;99.90;;;;;;4968291;28;20037;-88
2022/06/04 11:57:26;;;;;;;12.73;4.13;;;37.50;99.90;;;;;;4965793;28;20057;-88
2022/06/04 12:00:01;;;;;;;14.35;4.32;;;38.80;99.90;;;;;;4958136;28;20046;-88
2022/06/04 12:02:26;;;;;;;17.48;4.75;;;40.30;99.90;;;;;;4958013;28;20030;-89
2022/06/04 12:05:04;;;;;;;16.05;4.55;;;41.30;99.90;;;;;;4954822;28;20121;-88
2022/06/04 12:07:35;;;;;;;14.63;4.05;;;42.10;99.90;;;;;;4947558;29;20031;-88
2022/06/04 12:10:42;;;;;;;14.93;4.20;;;41.30;99.90;;;;;;4947732;29;21990;-89
2022/06/04 12:13:21;;;;;;;17.60;4.80;;;41.40;99.90;;;;;;4935037;29;20035;-90
2022/06/04 12:15:57;;;;;;;18.58;4.13;;;42.00;99.90;;;;;;4948908;29;20031;-89
2022/06/04 12:18:40;;;;;;;14.05;4.25;;;42.90;99.90;;;;;;4945785;29;20031;-89
2022/06/04 12:24:28;;;;;;;17.80;4.30;;;41.90;99.90;;;;;;4948401;29;20062;-89
2022/06/04 12:27:06;;;;;;;18.48;4.55;;;41.40;99.90;;;;;;4948651;28;20046;-89
2022/06/04 12:29:43;;;;;;;14.40;3.85;;;42.90;99.90;;;;;;4950868;28;20035;-89
2022/06/04 12:32:28;;;;;;;18.25;5.05;;;42.80;99.90;;;;;;4933435;29;20041;-89
2022/06/04 12:35:04;;;;;;;15.00;4.00;;;42.70;99.90;;;;;;4932606;29;20026;-89
2022/06/04 12:37:33;;;;;;;17.88;4.20;;;43.60;99.90;;;;;;4950752;28;20082;-91
2022/06/04 12:40:13;;;;;;;15.40;4.32;;;43.90;99.90;;;;;;4932425;28;20102;-90
2022/06/04 12:42:39;;;;;;;14.13;4.13;;;43.20;99.90;;;;;;4943732;29;20059;-90
2022/06/04 12:45:26;;;;;;;11.20;4.15;;;44.00;99.90;;;;;;4952172;28;20483;-89
2022/06/04 12:47:57;;;;;;;14.43;3.90;;;43.80;99.90;;;;;;4949899;28;20032;-90
2022/06/04 12:50:37;;;;;;;14.55;4.30;;;43.10;99.90;;;;;;4950959;28;20046;-90
2022/06/04 12:53:16;;;;;;;10.73;3.63;;;42.00;99.90;;;;;;4946273;28;20038;-90
2022/06/04 12:56:04;;;;;;;14.18;3.92;;;41.50;99.90;;;;;;4952018;28;20031;-89
2022/06/04 12:58:33;;;;;;;13.95;3.80;;;43.20;99.90;;;;;;4953247;28;20030;-90
2022/06/04 13:01:18;;;;;;;13.60;4.57;;;44.10;99.90;;;;;;4946073;29;20032;-90
2022/06/04 13:03:47;;;;;;;13.60;3.78;;;45.10;99.90;;;;;;4917081;28;20042;-90
2022/06/04 13:06:13;;;;;;;14.50;4.10;;;44.30;99.90;;;;;;4939829;29;20082;-90
2022/06/04 13:09:09;;;;;;;15.90;3.83;;;43.20;99.90;;;;;;4962626;28;20460;-90
2022/06/04 13:11:34;;;;;;;15.27;4.05;;;43.00;99.90;;;;;;4861203;29;20053;-90
2022/06/04 13:14:09;;;;;;;11.80;3.63;;;42.70;99.90;;;;;;4843258;29;20041;-89
2022/06/04 13:16:47;;;;;;;12.98;3.80;;;43.80;99.90;;;;;;4861430;29;20075;-89
2022/06/04 13:19:43;;;;;;;17.55;4.28;;;42.20;99.90;;;;;;4861343;29;20375;-89
2022/06/04 13:22:24;;;;;;;12.77;3.70;;;42.90;99.90;;;;;;4841896;29;20530;-89
2022/06/04 13:24:50;;;;;;;12.07;4.10;;;43.10;99.90;;;;;;4848673;29;20045;-90
2022/06/04 13:27:24;;;;;;;14.45;4.32;;;42.70;99.90;;;;;;4845092;29;20495;-90
2022/06/04 13:29:56;;;;;;;19.98;4.68;;;42.60;99.90;;;;;;4858898;29;20053;-89
2022/06/04 13:32:22;;;;;;;12.82;3.75;;;42.90;99.90;;;;;;4861331;29;20586;-89